| time (UTC) | temp F | wind direction | speed knots | gust knots | rain 1hr in | rain 24hr in | rain mn in | humidity % | barometer mb |
| 20260510204503 | 67 | 319 | 0.0 | 0.0 | 0.00 | 0.01 | 0.00 | 70 | 1012.2 |
| 20260510204004 | 67 | 319 | 0.9 | 2.6 | 0.00 | 0.02 | 0.00 | 70 | 1012.3 |
| 20260510203503 | 67 | 327 | 0.9 | 4.3 | 0.00 | 0.02 | 0.00 | 70 | 1012.2 |
| 20260510203004 | 66 | 310 | 1.7 | 2.6 | 0.00 | 0.03 | 0.00 | 71 | 1012.2 |
| 20260510202503 | 66 | 297 | 0.9 | 7.0 | 0.00 | 0.03 | 0.00 | 71 | 1012.3 |
| 20260510202004 | 66 | 291 | 0.0 | 7.0 | 0.00 | 0.04 | 0.00 | 72 | 1012.3 |
| 20260510200503 | 68 | 346 | 0.9 | 4.3 | 0.00 | 0.05 | 0.00 | 66 | 1012.2 |
| 20260510200004 | 69 | 311 | 3.5 | 8.7 | 0.00 | 0.05 | 0.00 | 60 | 1012.1 |
| 20260510195505 | 70 | 260 | 3.5 | 8.7 | 0.00 | 0.05 | 0.00 | 60 | 1012.2 |
| 20260510195004 | 70 | 253 | 0.9 | 7.8 | 0.00 | 0.05 | 0.00 | 62 | 1012.1 |
| 20260510194504 | 70 | 238 | 2.6 | 12.2 | 0.00 | 0.05 | 0.00 | 63 | 1012.0 |
| 20260510194004 | 70 | 272 | 2.6 | 10.4 | 0.00 | 0.05 | 0.00 | 63 | 1012.1 |
| 20260510193504 | 71 | 268 | 2.6 | 10.4 | 0.00 | 0.06 | 0.00 | 63 | 1011.9 |
| 20260510193004 | 71 | 245 | 3.5 | 10.4 | 0.00 | 0.06 | 0.00 | 64 | 1011.8 |
| 20260510192504 | 71 | 238 | 3.5 | 13.0 | 0.00 | 0.06 | 0.00 | 66 | 1011.9 |
| 20260510192003 | 70 | 269 | 1.7 | 4.3 | 0.00 | 0.06 | 0.00 | 68 | 1011.9 |
| 20260510191004 | 70 | 225 | 1.7 | 6.1 | 0.00 | 0.07 | 0.00 | 69 | 1011.9 |
| 20260510190003 | 69 | 240 | 0.9 | 4.3 | 0.00 | 0.07 | 0.00 | 72 | 1011.9 |
| 20260510185504 | 68 | 254 | 0.9 | 6.1 | 0.00 | 0.08 | 0.00 | 72 | 1012.0 |
| 20260510185004 | 68 | 258 | 0.0 | 0.0 | 0.00 | 0.08 | 0.00 | 72 | 1012.1 |
| 20260510184004 | 68 | 258 | 0.0 | 0.0 | 0.00 | 0.09 | 0.00 | 74 | 1012.2 |
| 20260510183504 | 68 | 258 | 0.0 | 1.7 | 0.00 | 0.10 | 0.00 | 72 | 1012.1 |
| 20260510183004 | 68 | 258 | 0.9 | 2.6 | 0.00 | 0.10 | 0.00 | 71 | 1012.1 |
| 20260510182503 | 68 | 259 | 0.9 | 2.6 | 0.00 | 0.11 | 0.00 | 70 | 1012.1 |
| 20260510182004 | 69 | 259 | 0.9 | 2.6 | 0.00 | 0.11 | 0.00 | 69 | 1012.2 |
| 20260510181504 | 69 | 261 | 0.9 | 4.3 | 0.00 | 0.11 | 0.00 | 68 | 1012.1 |
| 20260510181003 | 69 | 265 | 0.9 | 2.6 | 0.00 | 0.11 | 0.00 | 67 | 1012.1 |
| 20260510180503 | 69 | 265 | 0.0 | 2.6 | 0.00 | 0.11 | 0.00 | 66 | 1012.0 |
| 20260510180004 | 69 | 266 | 0.9 | 2.6 | 0.00 | 0.11 | 0.00 | 65 | 1012.0 |
| 20260510175504 | 69 | 266 | 0.0 | 1.7 | 0.00 | 0.12 | 0.00 | 66 | 1011.9 |
| 20260510175004 | 69 | 266 | 0.0 | 1.7 | 0.00 | 0.12 | 0.00 | 64 | 1011.9 |
| 20260510174504 | 69 | 266 | 0.9 | 1.7 | 0.00 | 0.13 | 0.00 | 64 | 1011.9 |
| 20260510173504 | 70 | 252 | 1.7 | 6.1 | 0.00 | 0.13 | 0.00 | 65 | 1011.9 |
| 20260510173004 | 70 | 238 | 0.9 | 2.6 | 0.00 | 0.13 | 0.00 | 65 | 1011.8 |
| 20260510172504 | 70 | 238 | 2.6 | 5.2 | 0.00 | 0.13 | 0.00 | 62 | 1011.8 |
| 20260510172004 | 70 | 189 | 0.0 | 2.6 | 0.00 | 0.13 | 0.00 | 64 | 1011.8 |
| 20260510171504 | 71 | 184 | 1.7 | 6.1 | 0.00 | 0.13 | 0.00 | 64 | 1011.6 |
| 20260510171004 | 70 | 246 | 0.9 | 4.3 | 0.00 | 0.13 | 0.00 | 65 | 1011.8 |
| 20260510170504 | 70 | 254 | 0.0 | 4.3 | 0.00 | 0.13 | 0.00 | 68 | 1011.9 |
| 20260510170004 | 69 | 256 | 0.9 | 6.1 | 0.00 | 0.13 | 0.00 | 67 | 1012.2 |
| 20260510165504 | 69 | 248 | 0.9 | 6.1 | 0.00 | 0.13 | 0.00 | 67 | 1012.2 |
| 20260510165003 | 69 | 269 | 0.0 | 5.2 | 0.00 | 0.13 | 0.00 | 69 | 1012.2 |
| 20260510164005 | 68 | 273 | 1.7 | 4.3 | 0.00 | 0.13 | 0.00 | 68 | 1012.1 |
| 20260510163504 | 68 | 205 | 1.7 | 6.1 | 0.00 | 0.13 | 0.00 | 68 | 1012.2 |
| 20260510161504 | 67 | 255 | 0.0 | 2.6 | 0.00 | 0.13 | 0.00 | 70 | 1012.2 |
| 20260510161004 | 67 | 257 | 0.9 | 2.6 | 0.00 | 0.13 | 0.00 | 70 | 1012.3 |
| 20260510160504 | 67 | 258 | 0.9 | 5.2 | 0.00 | 0.13 | 0.00 | 70 | 1012.4 |
| 20260510155504 | 67 | 254 | 0.0 | 2.6 | 0.00 | 0.13 | 0.00 | 70 | 1012.4 |
| 20260510155004 | 67 | 238 | 1.7 | 12.2 | 0.00 | 0.13 | 0.00 | 69 | 1012.3 |
| 20260510154503 | 67 | 295 | 1.7 | 5.2 | 0.00 | 0.13 | 0.00 | 70 | 1012.4 |
| 20260510154004 | 66 | 246 | 0.9 | 7.0 | 0.00 | 0.13 | 0.00 | 71 | 1012.5 |
| 20260510153504 | 66 | 263 | 0.9 | 6.1 | 0.00 | 0.13 | 0.00 | 73 | 1012.5 |
| 20260510153004 | 65 | 316 | 0.9 | 5.2 | 0.00 | 0.13 | 0.00 | 71 | 1012.5 |
| 20260510152004 | 66 | 249 | 2.6 | 7.0 | 0.00 | 0.14 | 0.00 | 71 | 1012.4 |
| 20260510151504 | 66 | 278 | 3.5 | 7.0 | 0.00 | 0.14 | 0.00 | 71 | 1012.3 |
| 20260510150504 | 66 | 268 | 0.9 | 4.3 | 0.00 | 0.14 | 0.00 | 76 | 1012.4 |
| 20260510150004 | 66 | 255 | 0.0 | 5.2 | 0.00 | 0.14 | 0.00 | 77 | 1012.5 |
| 20260510145504 | 65 | 254 | 0.9 | 5.2 | 0.00 | 0.14 | 0.00 | 77 | 1012.3 |
| 20260510145005 | 65 | 269 | 1.7 | 5.2 | 0.00 | 0.14 | 0.00 | 76 | 1012.4 |
| 20260510144503 | 65 | 235 | 0.9 | 5.2 | 0.00 | 0.14 | 0.00 | 77 | 1012.3 |
| 20260510144004 | 64 | 248 | 1.7 | 5.2 | 0.00 | 0.14 | 0.00 | 79 | 1012.3 |
| 20260510143504 | 63 | 208 | 1.7 | 5.2 | 0.00 | 0.14 | 0.00 | 80 | 1012.4 |
| 20260510143006 | 63 | 273 | 1.7 | 6.1 | 0.00 | 0.14 | 0.00 | 80 | 1012.3 |
| 20260510142504 | 62 | 195 | 0.9 | 6.1 | 0.00 | 0.14 | 0.00 | 81 | 1012.3 |
| 20260510141504 | 61 | 267 | 0.0 | 2.6 | 0.00 | 0.14 | 0.00 | 83 | 1012.4 |
| 20260510140504 | 60 | 205 | 0.9 | 2.6 | 0.00 | 0.14 | 0.00 | 85 | 1012.3 |
| 20260510135504 | 59 | 257 | 0.0 | 4.3 | 0.00 | 0.14 | 0.00 | 88 | 1012.2 |
| 20260510135007 | 58 | 258 | 0.9 | 4.3 | 0.00 | 0.14 | 0.00 | 89 | 1012.2 |
| 20260510134504 | 57 | 225 | 0.9 | 1.7 | 0.00 | 0.14 | 0.00 | 90 | 1012.4 |
| 20260510134004 | 57 | 225 | 0.9 | 2.6 | 0.00 | 0.14 | 0.00 | 91 | 1012.5 |
| 20260510133503 | 56 | 224 | 0.0 | 2.6 | 0.00 | 0.14 | 0.00 | 92 | 1012.6 |
| 20260510133004 | 56 | 212 | 0.0 | 1.7 | 0.00 | 0.14 | 0.00 | 92 | 1012.6 |
| 20260510132503 | 56 | 200 | 0.0 | 0.0 | 0.00 | 0.14 | 0.00 | 93 | 1012.6 |
| 20260510132005 | 55 | 200 | 0.0 | 0.9 | 0.00 | 0.14 | 0.00 | 93 | 1012.6 |
| 20260510131504 | 55 | 197 | 0.0 | 0.0 | 0.00 | 0.14 | 0.00 | 93 | 1012.6 |
| 20260510131004 | 55 | 197 | 0.0 | 0.0 | 0.00 | 0.14 | 0.00 | 93 | 1012.6 |
| 20260510130504 | 54 | 197 | 0.0 | 0.0 | 0.00 | 0.14 | 0.00 | 93 | 1012.5 |
| 20260510130004 | 54 | 197 | 0.0 | 0.0 | 0.00 | 0.14 | 0.00 | 93 | 1012.4 |
| 20260510125504 | 53 | 197 | 0.0 | 0.0 | 0.00 | 0.14 | 0.00 | 93 | 1012.6 |
| 20260510125004 | 53 | 197 | 0.0 | 0.0 | 0.00 | 0.14 | 0.00 | 93 | 1012.6 |
| 20260510124504 | 53 | 197 | 0.0 | 0.0 | 0.00 | 0.14 | 0.00 | 93 | 1012.5 |
| 20260510124007 | 52 | 197 | 0.0 | 0.0 | 0.00 | 0.14 | 0.00 | 93 | 1012.5 |
| 20260510123504 | 52 | 197 | 0.0 | 0.0 | 0.00 | 0.14 | 0.00 | 93 | 1012.5 |
| 20260510122504 | 52 | 197 | 0.0 | 0.0 | 0.00 | 0.14 | 0.00 | 93 | 1012.3 |
| 20260510122004 | 52 | 197 | 0.0 | 0.0 | 0.00 | 0.14 | 0.00 | 92 | 1012.2 |
| 20260510121004 | 51 | 197 | 0.0 | 0.0 | 0.00 | 0.14 | 0.00 | 93 | 1012.1 |
| 20260510120503 | 51 | 197 | 0.0 | 0.0 | 0.00 | 0.14 | 0.00 | 93 | 1012.0 |
| 20260510120004 | 51 | 197 | 0.0 | 0.0 | 0.00 | 0.14 | 0.00 | 93 | 1012.0 |
| 20260510115504 | 51 | 197 | 0.0 | 0.0 | 0.00 | 0.14 | 0.00 | 92 | 1012.0 |
| 20260510114504 | 51 | 197 | 0.0 | 0.0 | 0.00 | 0.14 | 0.00 | 92 | 1011.9 |
| 20260510114004 | 51 | 197 | 0.0 | 0.0 | 0.00 | 0.14 | 0.00 | 92 | 1012.0 |
| 20260510113503 | 51 | 197 | 0.0 | 0.0 | 0.00 | 0.14 | 0.00 | 92 | 1011.9 |
| 20260510112504 | 51 | 197 | 0.0 | 0.0 | 0.00 | 0.14 | 0.00 | 93 | 1011.9 |
| 20260510112003 | 51 | 197 | 0.0 | 0.0 | 0.00 | 0.14 | 0.00 | 93 | 1011.9 |
| 20260510111003 | 50 | 197 | 0.0 | 0.0 | 0.00 | 0.14 | 0.00 | 93 | 1011.5 |
| 20260510110505 | 50 | 197 | 0.0 | 0.0 | 0.00 | 0.14 | 0.00 | 93 | 1011.6 |
| 20260510110004 | 50 | 197 | 0.0 | 0.0 | 0.00 | 0.14 | 0.00 | 93 | 1011.6 |
| 20260510105504 | 50 | 197 | 0.0 | 0.0 | 0.00 | 0.14 | 0.00 | 92 | 1011.6 |
| 20260510105004 | 49 | 197 | 0.0 | 0.0 | 0.00 | 0.14 | 0.00 | 93 | 1011.5 |
| 20260510104504 | 49 | 197 | 0.0 | 0.0 | 0.00 | 0.14 | 0.00 | 92 | 1011.4 |
| 20260510104004 | 49 | 197 | 0.0 | 0.0 | 0.00 | 0.14 | 0.00 | 92 | 1011.4 |
| 20260510103505 | 49 | 197 | 0.0 | 0.0 | 0.00 | 0.14 | 0.00 | 92 | 1011.2 |
| 20260510103003 | 49 | 197 | 0.0 | 0.0 | 0.00 | 0.14 | 0.00 | 92 | 1011.2 |
| 20260510102504 | 49 | 197 | 0.0 | 0.0 | 0.00 | 0.14 | 0.00 | 92 | 1011.2 |
| 20260510102003 | 49 | 197 | 0.0 | 0.0 | 0.00 | 0.14 | 0.00 | 92 | 1011.2 |
| 20260510101503 | 49 | 197 | 0.0 | 0.0 | 0.00 | 0.14 | 0.00 | 92 | 1011.2 |
| 20260510100505 | 49 | 197 | 0.0 | 0.0 | 0.00 | 0.14 | 0.00 | 92 | 1011.1 |
| 20260510100004 | 49 | 197 | 0.0 | 0.0 | 0.00 | 0.14 | 0.00 | 92 | 1010.9 |
| 20260510095504 | 49 | 197 | 0.0 | 0.0 | 0.00 | 0.14 | 0.00 | 92 | 1010.8 |
| 20260510095004 | 49 | 197 | 0.0 | 0.0 | 0.00 | 0.14 | 0.00 | 92 | 1010.8 |
| 20260510094504 | 49 | 197 | 0.0 | 0.0 | 0.00 | 0.14 | 0.00 | 92 | 1010.7 |
| 20260510094004 | 49 | 197 | 0.0 | 0.0 | 0.00 | 0.14 | 0.00 | 92 | 1010.8 |
| 20260510093504 | 49 | 197 | 0.0 | 0.0 | 0.00 | 0.14 | 0.00 | 92 | 1010.7 |
| 20260510093003 | 49 | 197 | 0.0 | 0.0 | 0.00 | 0.14 | 0.00 | 92 | 1010.5 |
| 20260510092004 | 49 | 197 | 0.0 | 0.0 | 0.00 | 0.14 | 0.00 | 92 | 1010.5 |
| 20260510091503 | 49 | 197 | 0.0 | 0.0 | 0.00 | 0.14 | 0.00 | 92 | 1010.6 |
| 20260510091004 | 49 | 197 | 0.0 | 0.0 | 0.00 | 0.14 | 0.00 | 92 | 1010.4 |
| 20260510090504 | 49 | 197 | 0.0 | 0.0 | 0.00 | 0.14 | 0.00 | 92 | 1010.5 |
| 20260510090003 | 49 | 197 | 0.0 | 0.0 | 0.00 | 0.14 | 0.00 | 92 | 1010.7 |
| 20260510085505 | 49 | 197 | 0.0 | 2.6 | 0.00 | 0.14 | 0.00 | 92 | 1010.6 |
| 20260510085003 | 49 | 197 | 0.9 | 2.6 | 0.00 | 0.14 | 0.00 | 92 | 1010.7 |
| 20260510084503 | 49 | 193 | 0.9 | 2.6 | 0.00 | 0.14 | 0.00 | 92 | 1010.7 |
| 20260510084004 | 49 | 188 | 0.0 | 0.0 | 0.00 | 0.14 | 0.00 | 92 | 1010.6 |
| 20260510083504 | 49 | 188 | 0.0 | 0.0 | 0.00 | 0.14 | 0.00 | 92 | 1010.8 |
| 20260510083004 | 49 | 188 | 0.0 | 0.0 | 0.00 | 0.14 | 0.00 | 92 | 1011.0 |
| 20260510082003 | 49 | 188 | 0.0 | 0.0 | 0.00 | 0.14 | 0.00 | 92 | 1011.2 |
| 20260510081504 | 48 | 188 | 0.0 | 0.0 | 0.00 | 0.14 | 0.00 | 92 | 1011.2 |
| 20260510080503 | 48 | 188 | 0.0 | 0.0 | 0.00 | 0.14 | 0.00 | 92 | 1011.3 |
| 20260510080004 | 48 | 188 | 0.0 | 0.0 | 0.00 | 0.14 | 0.00 | 92 | 1011.3 |
| 20260510075503 | 48 | 188 | 0.0 | 0.0 | 0.00 | 0.14 | 0.00 | 92 | 1011.3 |
| 20260510075004 | 48 | 188 | 0.0 | 0.0 | 0.00 | 0.14 | 0.00 | 92 | 1011.4 |
| 20260510074504 | 48 | 188 | 0.0 | 0.0 | 0.00 | 0.14 | 0.00 | 92 | 1011.4 |
| 20260510074003 | 47 | 188 | 0.0 | 0.0 | 0.00 | 0.14 | 0.00 | 92 | 1011.6 |
| 20260510073504 | 47 | 188 | 0.0 | 0.0 | 0.00 | 0.14 | 0.00 | 92 | 1011.7 |
| 20260510073004 | 47 | 188 | 0.0 | 0.0 | 0.00 | 0.15 | 0.00 | 92 | 1011.7 |
| 20260510072504 | 47 | 188 | 0.0 | 0.0 | 0.00 | 0.15 | 0.00 | 92 | 1011.7 |
| 20260510072004 | 47 | 188 | 0.0 | 0.0 | 0.00 | 0.15 | 0.00 | 92 | 1011.7 |
| 20260510071504 | 46 | 188 | 0.0 | 0.0 | 0.00 | 0.15 | 0.00 | 92 | 1011.8 |
| 20260510071003 | 46 | 188 | 0.0 | 0.0 | 0.00 | 0.15 | 0.00 | 92 | 1011.9 |
| 20260510070004 | 46 | 188 | 0.0 | 0.0 | 0.00 | 0.16 | 0.00 | 92 | 1011.9 |
| 20260510065504 | 46 | 188 | 0.0 | 0.0 | 0.00 | 0.16 | 0.00 | 92 | 1011.6 |
| 20260510065004 | 46 | 188 | 0.0 | 0.0 | 0.00 | 0.17 | 0.00 | 92 | 1011.1 |
| 20260510064503 | 46 | 188 | 0.0 | 0.0 | 0.00 | 0.17 | 0.00 | 92 | 1011.2 |
| 20260510064004 | 46 | 188 | 0.0 | 0.0 | 0.00 | 0.17 | 0.00 | 92 | 1011.1 |
| 20260510062503 | 45 | 188 | 0.0 | 0.0 | 0.00 | 0.17 | 0.00 | 91 | 1011.2 |
| 20260510062004 | 45 | 188 | 0.0 | 0.0 | 0.00 | 0.17 | 0.00 | 91 | 1011.1 |
| 20260510061503 | 45 | 188 | 0.0 | 0.0 | 0.00 | 0.17 | 0.00 | 91 | 1011.1 |
| 20260510061004 | 45 | 188 | 0.0 | 0.0 | 0.00 | 0.17 | 0.00 | 91 | 1011.3 |
| 20260510060503 | 45 | 188 | 0.0 | 0.0 | 0.00 | 0.17 | 0.00 | 91 | 1011.5 |
| 20260510060004 | 45 | 188 | 0.0 | 0.0 | 0.00 | 0.17 | 0.00 | 91 | 1011.5 |
| 20260510055505 | 45 | 188 | 0.0 | 0.0 | 0.00 | 0.17 | 0.00 | 91 | 1011.5 |
| 20260510055004 | 45 | 188 | 0.0 | 0.0 | 0.00 | 0.17 | 0.00 | 91 | 1011.4 |
| 20260510054504 | 45 | 188 | 0.0 | 0.0 | 0.00 | 0.17 | 0.00 | 91 | 1011.4 |
| 20260510054005 | 45 | 188 | 0.0 | 0.0 | 0.00 | 0.17 | 0.00 | 91 | 1011.3 |
| 20260510053504 | 45 | 188 | 0.0 | 0.0 | 0.00 | 0.17 | 0.00 | 91 | 1011.3 |
| 20260510052504 | 45 | 188 | 0.0 | 0.0 | 0.00 | 0.17 | 0.00 | 91 | 1010.8 |
| 20260510052004 | 45 | 188 | 0.0 | 0.0 | 0.00 | 0.17 | 0.00 | 91 | 1010.5 |
| 20260510051504 | 45 | 188 | 0.0 | 0.0 | 0.00 | 0.17 | 0.00 | 91 | 1010.6 |
| 20260510051004 | 45 | 188 | 0.0 | 0.0 | 0.00 | 0.17 | 0.00 | 91 | 1010.6 |
| 20260510050504 | 45 | 188 | 0.0 | 0.0 | 0.00 | 0.17 | 0.00 | 90 | 1010.7 |
| 20260510050004 | 45 | 188 | 0.0 | 0.0 | 0.00 | 0.17 | 0.00 | 91 | 1010.8 |
| 20260510045004 | 46 | 188 | 0.0 | 0.0 | 0.00 | 0.17 | 0.00 | 90 | 1010.9 |
| 20260510044504 | 46 | 188 | 0.0 | 0.0 | 0.00 | 0.17 | 0.00 | 90 | 1011.0 |
| 20260510044004 | 46 | 188 | 0.0 | 0.0 | 0.00 | 0.17 | 0.00 | 90 | 1010.9 |
| 20260510043504 | 46 | 188 | 0.0 | 0.0 | 0.00 | 0.17 | 0.00 | 90 | 1011.0 |
| 20260510043004 | 46 | 188 | 0.0 | 0.0 | 0.00 | 0.17 | 0.00 | 90 | 1010.9 |
| 20260510042504 | 46 | 188 | 0.0 | 0.0 | 0.00 | 0.17 | 0.00 | 90 | 1010.8 |
| 20260510042005 | 46 | 188 | 0.0 | 0.0 | 0.00 | 0.17 | 0.00 | 90 | 1010.7 |
| 20260510041504 | 46 | 188 | 0.0 | 0.0 | 0.00 | 0.17 | 0.00 | 90 | 1010.8 |
| 20260510041004 | 47 | 188 | 0.0 | 0.0 | 0.00 | 0.17 | 0.00 | 90 | 1010.7 |
| 20260510040504 | 47 | 188 | 0.0 | 0.0 | 0.00 | 0.17 | 0.00 | 90 | 1010.8 |
| 20260510040004 | 47 | 188 | 0.0 | 0.0 | 0.00 | 0.17 | 0.00 | 90 | 1010.8 |
| 20260510035504 | 47 | 188 | 0.0 | 0.0 | 0.00 | 0.17 | 0.17 | 90 | 1010.6 |
| 20260510035004 | 47 | 188 | 0.0 | 0.0 | 0.00 | 0.17 | 0.17 | 90 | 1010.6 |
| 20260510034504 | 47 | 188 | 0.0 | 0.0 | 0.00 | 0.17 | 0.17 | 90 | 1010.5 |
| 20260510034004 | 47 | 188 | 0.0 | 0.0 | 0.00 | 0.17 | 0.17 | 90 | 1010.4 |
| 20260510033504 | 47 | 188 | 0.0 | 0.0 | 0.00 | 0.17 | 0.17 | 90 | 1010.5 |
| 20260510032504 | 48 | 188 | 0.0 | 0.0 | 0.00 | 0.17 | 0.17 | 90 | 1010.6 |
| 20260510032004 | 48 | 188 | 0.0 | 0.0 | 0.00 | 0.17 | 0.17 | 90 | 1010.6 |
| 20260510031505 | 48 | 188 | 0.0 | 0.0 | 0.00 | 0.17 | 0.17 | 90 | 1010.6 |
| 20260510030504 | 48 | 188 | 0.0 | 0.0 | 0.00 | 0.17 | 0.17 | 90 | 1010.6 |
| 20260510030005 | 48 | 188 | 0.0 | 0.0 | 0.00 | 0.17 | 0.17 | 90 | 1010.6 |
| 20260510025504 | 49 | 188 | 0.0 | 0.0 | 0.00 | 0.17 | 0.17 | 90 | 1010.7 |
| 20260510025004 | 49 | 188 | 0.0 | 0.0 | 0.00 | 0.17 | 0.17 | 90 | 1010.6 |
| 20260510024504 | 49 | 188 | 0.0 | 0.0 | 0.00 | 0.17 | 0.17 | 90 | 1010.6 |
| 20260510024004 | 49 | 188 | 0.0 | 0.0 | 0.00 | 0.17 | 0.17 | 90 | 1010.6 |
| 20260510023504 | 49 | 188 | 0.0 | 0.0 | 0.00 | 0.17 | 0.17 | 89 | 1010.7 |
| 20260510023004 | 49 | 188 | 0.0 | 0.0 | 0.00 | 0.17 | 0.17 | 90 | 1010.7 |
| 20260510022505 | 50 | 188 | 0.0 | 0.0 | 0.00 | 0.17 | 0.17 | 89 | 1010.6 |
| 20260510022004 | 50 | 188 | 0.0 | 0.0 | 0.00 | 0.17 | 0.17 | 89 | 1010.6 |
| 20260510021504 | 50 | 188 | 0.0 | 0.0 | 0.00 | 0.17 | 0.17 | 89 | 1010.5 |
| 20260510021004 | 50 | 188 | 0.0 | 0.0 | 0.00 | 0.17 | 0.17 | 89 | 1010.4 |
| 20260510020504 | 51 | 188 | 0.0 | 0.0 | 0.00 | 0.17 | 0.17 | 89 | 1010.5 |
| 20260510020005 | 51 | 188 | 0.0 | 0.0 | 0.00 | 0.17 | 0.17 | 89 | 1010.5 |
| 20260510015504 | 51 | 188 | 0.0 | 0.0 | 0.00 | 0.17 | 0.17 | 89 | 1010.4 |
| 20260510015003 | 51 | 188 | 0.0 | 0.0 | 0.00 | 0.17 | 0.17 | 89 | 1010.4 |
| 20260510014503 | 51 | 188 | 0.0 | 0.0 | 0.00 | 0.17 | 0.17 | 89 | 1010.4 |
| 20260510014004 | 52 | 188 | 0.0 | 0.0 | 0.00 | 0.17 | 0.17 | 89 | 1010.3 |
| 20260510013503 | 52 | 188 | 0.0 | 0.0 | 0.00 | 0.17 | 0.17 | 89 | 1010.4 |
| 20260510013004 | 52 | 188 | 0.0 | 0.0 | 0.00 | 0.17 | 0.17 | 89 | 1010.4 |
| 20260510012504 | 52 | 188 | 0.0 | 0.0 | 0.00 | 0.17 | 0.17 | 89 | 1010.3 |
| 20260510011504 | 52 | 188 | 0.0 | 0.0 | 0.00 | 0.17 | 0.17 | 88 | 1010.2 |
| 20260510010004 | 53 | 188 | 0.0 | 0.0 | 0.00 | 0.17 | 0.17 | 88 | 1009.9 |
| 20260510005504 | 53 | 188 | 0.0 | 0.0 | 0.00 | 0.17 | 0.17 | 88 | 1009.8 |
| 20260510005005 | 53 | 188 | 0.0 | 0.9 | 0.00 | 0.17 | 0.17 | 88 | 1009.8 |
| 20260510004504 | 53 | 188 | 0.0 | 0.0 | 0.00 | 0.17 | 0.17 | 88 | 1009.8 |
| 20260510004004 | 53 | 188 | 0.9 | 4.3 | 0.00 | 0.17 | 0.17 | 88 | 1009.7 |
| 20260510003504 | 53 | 158 | 0.0 | 2.6 | 0.00 | 0.17 | 0.17 | 88 | 1009.7 |
| 20260510003004 | 53 | 219 | 0.9 | 5.2 | 0.00 | 0.17 | 0.17 | 88 | 1009.7 |
| 20260510002504 | 54 | 232 | 0.0 | 2.6 | 0.00 | 0.17 | 0.17 | 88 | 1009.6 |
| 20260510002004 | 54 | 218 | 0.9 | 1.7 | 0.00 | 0.17 | 0.17 | 88 | 1009.4 |
| 20260510001504 | 54 | 212 | 0.9 | 2.6 | 0.00 | 0.17 | 0.17 | 88 | 1009.4 |
| 20260510001004 | 54 | 208 | 0.9 | 4.3 | 0.00 | 0.17 | 0.17 | 88 | 1009.4 |
| 20260510000004 | 54 | 167 | 0.0 | 1.7 | 0.00 | 0.17 | 0.17 | 88 | 1009.4 |
| 20260509235503 | 54 | 157 | 0.9 | 6.1 | 0.00 | 0.17 | 0.17 | 88 | 1009.4 |
| 20260509235005 | 54 | 246 | 0.0 | 1.7 | 0.00 | 0.17 | 0.17 | 88 | 1009.3 |
| 20260509234504 | 54 | 246 | 0.0 | 0.0 | 0.00 | 0.17 | 0.17 | 88 | 1009.3 |
| 20260509234004 | 54 | 246 | 0.0 | 2.6 | 0.00 | 0.17 | 0.17 | 88 | 1009.3 |
| 20260509233504 | 55 | 245 | 0.0 | 0.0 | 0.00 | 0.17 | 0.17 | 88 | 1009.1 |
| 20260509232504 | 55 | 245 | 0.0 | 0.0 | 0.00 | 0.17 | 0.17 | 88 | 1009.1 |
| 20260509232004 | 55 | 245 | 0.0 | 2.6 | 0.00 | 0.17 | 0.17 | 88 | 1009.2 |
| 20260509231504 | 55 | 248 | 0.0 | 0.0 | 0.00 | 0.17 | 0.17 | 89 | 1009.2 |
| 20260509231004 | 55 | 248 | 0.0 | 0.0 | 0.00 | 0.17 | 0.17 | 89 | 1009.2 |
| 20260509230504 | 55 | 248 | 0.0 | 0.0 | 0.00 | 0.17 | 0.17 | 89 | 1009.2 |
| 20260509230004 | 55 | 248 | 0.0 | 0.0 | 0.00 | 0.17 | 0.17 | 89 | 1009.3 |
| 20260509225504 | 55 | 248 | 0.0 | 0.0 | 0.00 | 0.17 | 0.17 | 89 | 1009.3 |
| 20260509225004 | 55 | 248 | 0.0 | 0.0 | 0.00 | 0.17 | 0.17 | 89 | 1009.3 |
| 20260509224504 | 54 | 248 | 0.0 | 0.0 | 0.00 | 0.17 | 0.17 | 89 | 1009.4 |
| 20260509223504 | 54 | 248 | 0.0 | 0.0 | 0.00 | 0.17 | 0.17 | 89 | 1009.4 |
| 20260509223004 | 54 | 248 | 0.0 | 0.9 | 0.00 | 0.17 | 0.17 | 89 | 1009.3 |
| 20260509222503 | 54 | 248 | 0.0 | 1.7 | 0.01 | 0.17 | 0.17 | 89 | 1009.2 |
| 20260509222004 | 54 | 248 | 0.0 | 1.7 | 0.01 | 0.17 | 0.17 | 89 | 1009.3 |
| 20260509221504 | 54 | 248 | 0.0 | 0.9 | 0.01 | 0.17 | 0.17 | 89 | 1009.3 |
| 20260509220504 | 55 | 248 | 0.0 | 0.0 | 0.01 | 0.17 | 0.17 | 90 | 1009.3 |
| 20260509215504 | 54 | 248 | 0.0 | 0.0 | 0.01 | 0.17 | 0.17 | 90 | 1009.5 |
| 20260509214504 | 55 | 248 | 0.0 | 2.6 | 0.01 | 0.17 | 0.17 | 90 | 1009.7 |
| 20260509214003 | 55 | 249 | 0.0 | 0.0 | 0.02 | 0.17 | 0.17 | 90 | 1009.7 |
| 20260509213504 | 55 | 249 | 0.0 | 0.0 | 0.02 | 0.17 | 0.17 | 90 | 1009.8 |
| 20260509213004 | 54 | 249 | 0.0 | 0.0 | 0.03 | 0.17 | 0.17 | 90 | 1009.8 |
| 20260509212503 | 54 | 249 | 0.0 | 0.0 | 0.02 | 0.16 | 0.16 | 90 | 1009.9 |
| 20260509211503 | 54 | 249 | 0.0 | 0.0 | 0.03 | 0.16 | 0.16 | 90 | 1009.8 |
| 20260509211004 | 54 | 249 | 0.0 | 0.0 | 0.04 | 0.16 | 0.16 | 90 | 1009.9 |
| 20260509210504 | 54 | 249 | 0.0 | 0.0 | 0.04 | 0.16 | 0.16 | 90 | 1009.9 |
| 20260509210004 | 54 | 249 | 0.0 | 0.0 | 0.04 | 0.16 | 0.16 | 90 | 1009.9 |
| 20260509205504 | 54 | 249 | 0.0 | 0.0 | 0.04 | 0.16 | 0.16 | 90 | 1009.9 |